sensor_id;sensor_type;location;lat;lon;timestamp;P1;durP1;ratioP1;P2;durP2;ratioP2
21438;SDS011;10880;50.302;18.736;2023-07-16T00:01:06;1.97;;;1.83;;
21438;SDS011;10880;50.302;18.736;2023-07-16T00:03:34;2.00;;;1.90;;
21438;SDS011;10880;50.302;18.736;2023-07-16T00:06:13;1.90;;;1.80;;
21438;SDS011;10880;50.302;18.736;2023-07-16T00:08:39;2.10;;;1.90;;
21438;SDS011;10880;50.302;18.736;2023-07-16T00:11:06;1.90;;;1.80;;
21438;SDS011;10880;50.302;18.736;2023-07-16T00:13:39;1.83;;;1.73;;
21438;SDS011;10880;50.302;18.736;2023-07-16T00:16:12;1.77;;;1.67;;
21438;SDS011;10880;50.302;18.736;2023-07-16T00:18:41;2.30;;;2.10;;
21438;SDS011;10880;50.302;18.736;2023-07-16T00:21:10;2.10;;;2.00;;
21438;SDS011;10880;50.302;18.736;2023-07-16T00:23:37;2.13;;;2.00;;
21438;SDS011;10880;50.302;18.736;2023-07-16T00:26:03;1.90;;;1.80;;
21438;SDS011;10880;50.302;18.736;2023-07-16T00:28:31;2.20;;;2.00;;
21438;SDS011;10880;50.302;18.736;2023-07-16T00:30:58;2.13;;;1.93;;
21438;SDS011;10880;50.302;18.736;2023-07-16T00:33:25;2.20;;;2.00;;
21438;SDS011;10880;50.302;18.736;2023-07-16T00:35:53;2.33;;;2.10;;
21438;SDS011;10880;50.302;18.736;2023-07-16T00:38:20;2.00;;;1.80;;
21438;SDS011;10880;50.302;18.736;2023-07-16T00:40:52;2.00;;;1.90;;
21438;SDS011;10880;50.302;18.736;2023-07-16T00:43:18;2.20;;;2.00;;
21438;SDS011;10880;50.302;18.736;2023-07-16T00:45:47;2.03;;;1.93;;
21438;SDS011;10880;50.302;18.736;2023-07-16T00:48:16;2.40;;;2.00;;
21438;SDS011;10880;50.302;18.736;2023-07-16T00:50:43;2.20;;;2.00;;
21438;SDS011;10880;50.302;18.736;2023-07-16T00:53:10;2.50;;;2.30;;
21438;SDS011;10880;50.302;18.736;2023-07-16T00:55:40;2.60;;;2.40;;
21438;SDS011;10880;50.302;18.736;2023-07-16T00:58:07;2.50;;;2.10;;
21438;SDS011;10880;50.302;18.736;2023-07-16T01:00:34;2.40;;;2.20;;
21438;SDS011;10880;50.302;18.736;2023-07-16T01:03:03;2.23;;;2.03;;
21438;SDS011;10880;50.302;18.736;2023-07-16T01:05:55;2.20;;;2.00;;
21438;SDS011;10880;50.302;18.736;2023-07-16T01:08:35;2.50;;;2.30;;
21438;SDS011;10880;50.302;18.736;2023-07-16T01:11:08;2.40;;;2.20;;
21438;SDS011;10880;50.302;18.736;2023-07-16T01:13:38;2.33;;;2.10;;
21438;SDS011;10880;50.302;18.736;2023-07-16T01:16:07;2.60;;;2.40;;
21438;SDS011;10880;50.302;18.736;2023-07-16T01:18:50;2.67;;;2.10;;
21438;SDS011;10880;50.302;18.736;2023-07-16T01:21:19;2.60;;;2.30;;
21438;SDS011;10880;50.302;18.736;2023-07-16T01:29:36;2.40;;;2.20;;
21438;SDS011;10880;50.302;18.736;2023-07-16T01:32:15;2.33;;;2.13;;
21438;SDS011;10880;50.302;18.736;2023-07-16T01:34:42;2.00;;;1.90;;
21438;SDS011;10880;50.302;18.736;2023-07-16T01:37:10;2.37;;;2.17;;
21438;SDS011;10880;50.302;18.736;2023-07-16T01:39:38;2.57;;;2.10;;
21438;SDS011;10880;50.302;18.736;2023-07-16T01:42:06;2.20;;;2.10;;
21438;SDS011;10880;50.302;18.736;2023-07-16T01:44:32;2.40;;;2.20;;
21438;SDS011;10880;50.302;18.736;2023-07-16T01:49:41;2.20;;;2.00;;
21438;SDS011;10880;50.302;18.736;2023-07-16T01:52:09;2.63;;;1.90;;
21438;SDS011;10880;50.302;18.736;2023-07-16T01:54:36;2.43;;;2.23;;
21438;SDS011;10880;50.302;18.736;2023-07-16T01:57:05;2.30;;;2.10;;
21438;SDS011;10880;50.302;18.736;2023-07-16T01:59:33;2.40;;;2.20;;
21438;SDS011;10880;50.302;18.736;2023-07-16T02:01:59;6.57;;;2.67;;
21438;SDS011;10880;50.302;18.736;2023-07-16T02:04:26;3.17;;;2.07;;
21438;SDS011;10880;50.302;18.736;2023-07-16T02:06:52;2.43;;;2.23;;
21438;SDS011;10880;50.302;18.736;2023-07-16T02:09:20;2.40;;;2.20;;
21438;SDS011;10880;50.302;18.736;2023-07-16T02:11:48;2.17;;;2.00;;
21438;SDS011;10880;50.302;18.736;2023-07-16T02:14:16;2.50;;;2.27;;
21438;SDS011;10880;50.302;18.736;2023-07-16T02:16:44;2.40;;;2.20;;
21438;SDS011;10880;50.302;18.736;2023-07-16T02:19:12;2.20;;;2.00;;
21438;SDS011;10880;50.302;18.736;2023-07-16T02:21:40;2.27;;;2.03;;
21438;SDS011;10880;50.302;18.736;2023-07-16T02:24:06;2.40;;;2.20;;
21438;SDS011;10880;50.302;18.736;2023-07-16T02:26:33;2.57;;;2.30;;
21438;SDS011;10880;50.302;18.736;2023-07-16T02:29:01;2.40;;;2.20;;
21438;SDS011;10880;50.302;18.736;2023-07-16T02:31:28;2.37;;;2.17;;
21438;SDS011;10880;50.302;18.736;2023-07-16T02:33:57;2.30;;;2.10;;
21438;SDS011;10880;50.302;18.736;2023-07-16T02:36:23;2.40;;;2.20;;
21438;SDS011;10880;50.302;18.736;2023-07-16T02:38:51;2.27;;;2.07;;
21438;SDS011;10880;50.302;18.736;2023-07-16T02:41:17;2.50;;;2.30;;
21438;SDS011;10880;50.302;18.736;2023-07-16T02:43:45;2.30;;;2.10;;
21438;SDS011;10880;50.302;18.736;2023-07-16T02:46:13;2.00;;;1.90;;
21438;SDS011;10880;50.302;18.736;2023-07-16T02:48:40;2.60;;;2.40;;
21438;SDS011;10880;50.302;18.736;2023-07-16T02:51:08;2.60;;;2.40;;
21438;SDS011;10880;50.302;18.736;2023-07-16T02:53:37;2.63;;;2.30;;
21438;SDS011;10880;50.302;18.736;2023-07-16T02:56:03;2.67;;;2.33;;
21438;SDS011;10880;50.302;18.736;2023-07-16T02:58:34;2.70;;;2.50;;
21438;SDS011;10880;50.302;18.736;2023-07-16T03:01:00;2.50;;;2.30;;
21438;SDS011;10880;50.302;18.736;2023-07-16T03:03:27;2.70;;;2.50;;
21438;SDS011;10880;50.302;18.736;2023-07-16T03:05:54;2.53;;;2.33;;
21438;SDS011;10880;50.302;18.736;2023-07-16T03:08:20;3.23;;;2.93;;
21438;SDS011;10880;50.302;18.736;2023-07-16T03:10:48;2.97;;;2.70;;
21438;SDS011;10880;50.302;18.736;2023-07-16T03:13:15;3.20;;;2.90;;
21438;SDS011;10880;50.302;18.736;2023-07-16T03:15:42;2.90;;;2.60;;
21438;SDS011;10880;50.302;18.736;2023-07-16T03:18:08;3.03;;;2.70;;
21438;SDS011;10880;50.302;18.736;2023-07-16T03:20:35;2.47;;;2.27;;
21438;SDS011;10880;50.302;18.736;2023-07-16T03:23:01;3.33;;;2.77;;
21438;SDS011;10880;50.302;18.736;2023-07-16T03:25:28;3.20;;;2.90;;
21438;SDS011;10880;50.302;18.736;2023-07-16T03:27:56;3.30;;;3.00;;
21438;SDS011;10880;50.302;18.736;2023-07-16T03:30:22;5.10;;;3.80;;
21438;SDS011;10880;50.302;18.736;2023-07-16T03:32:49;3.57;;;3.23;;
21438;SDS011;10880;50.302;18.736;2023-07-16T03:35:16;3.93;;;3.53;;
21438;SDS011;10880;50.302;18.736;2023-07-16T03:37:43;4.13;;;3.60;;
21438;SDS011;10880;50.302;18.736;2023-07-16T03:40:18;3.40;;;3.10;;
21438;SDS011;10880;50.302;18.736;2023-07-16T03:42:50;4.77;;;3.47;;
21438;SDS011;10880;50.302;18.736;2023-07-16T03:45:18;3.80;;;3.20;;
21438;SDS011;10880;50.302;18.736;2023-07-16T03:47:45;3.67;;;2.87;;
21438;SDS011;10880;50.302;18.736;2023-07-16T03:50:12;4.27;;;3.07;;
21438;SDS011;10880;50.302;18.736;2023-07-16T03:52:39;3.57;;;2.90;;
21438;SDS011;10880;50.302;18.736;2023-07-16T03:55:05;3.30;;;3.00;;
21438;SDS011;10880;50.302;18.736;2023-07-16T03:57:32;3.50;;;2.97;;
21438;SDS011;10880;50.302;18.736;2023-07-16T03:59:59;4.00;;;2.93;;
21438;SDS011;10880;50.302;18.736;2023-07-16T04:02:27;3.30;;;2.90;;
21438;SDS011;10880;50.302;18.736;2023-07-16T04:04:53;3.23;;;2.93;;
21438;SDS011;10880;50.302;18.736;2023-07-16T04:07:20;2.77;;;2.57;;
21438;SDS011;10880;50.302;18.736;2023-07-16T04:09:46;3.40;;;2.43;;
21438;SDS011;10880;50.302;18.736;2023-07-16T04:12:13;2.50;;;2.30;;
21438;SDS011;10880;50.302;18.736;2023-07-16T04:14:39;3.40;;;2.60;;
21438;SDS011;10880;50.302;18.736;2023-07-16T04:17:06;2.63;;;2.27;;
21438;SDS011;10880;50.302;18.736;2023-07-16T04:19:32;2.70;;;2.50;;
21438;SDS011;10880;50.302;18.736;2023-07-16T04:21:59;2.70;;;2.50;;
21438;SDS011;10880;50.302;18.736;2023-07-16T04:24:27;2.30;;;2.10;;
21438;SDS011;10880;50.302;18.736;2023-07-16T04:26:53;2.30;;;2.10;;
21438;SDS011;10880;50.302;18.736;2023-07-16T04:29:20;2.13;;;1.93;;
21438;SDS011;10880;50.302;18.736;2023-07-16T04:31:47;2.40;;;2.20;;
21438;SDS011;10880;50.302;18.736;2023-07-16T04:34:14;2.17;;;1.90;;
21438;SDS011;10880;50.302;18.736;2023-07-16T04:36:41;1.97;;;1.87;;
21438;SDS011;10880;50.302;18.736;2023-07-16T04:39:08;2.20;;;2.00;;
21438;SDS011;10880;50.302;18.736;2023-07-16T04:41:35;2.17;;;2.00;;
21438;SDS011;10880;50.302;18.736;2023-07-16T04:44:01;2.33;;;2.13;;
21438;SDS011;10880;50.302;18.736;2023-07-16T04:46:28;2.13;;;2.00;;
21438;SDS011;10880;50.302;18.736;2023-07-16T04:48:56;2.40;;;2.20;;
21438;SDS011;10880;50.302;18.736;2023-07-16T04:51:22;2.47;;;2.20;;
21438;SDS011;10880;50.302;18.736;2023-07-16T04:53:49;2.40;;;2.20;;
21438;SDS011;10880;50.302;18.736;2023-07-16T04:56:16;2.33;;;2.13;;
21438;SDS011;10880;50.302;18.736;2023-07-16T04:58:42;2.13;;;1.93;;
21438;SDS011;10880;50.302;18.736;2023-07-16T05:01:09;2.57;;;2.30;;
21438;SDS011;10880;50.302;18.736;2023-07-16T05:03:36;2.17;;;1.97;;
21438;SDS011;10880;50.302;18.736;2023-07-16T05:06:04;2.37;;;2.17;;
21438;SDS011;10880;50.302;18.736;2023-07-16T05:08:32;2.40;;;2.07;;
21438;SDS011;10880;50.302;18.736;2023-07-16T05:10:58;2.20;;;2.00;;
21438;SDS011;10880;50.302;18.736;2023-07-16T05:13:25;3.30;;;2.03;;
21438;SDS011;10880;50.302;18.736;2023-07-16T05:15:53;2.70;;;2.50;;
21438;SDS011;10880;50.302;18.736;2023-07-16T05:18:23;2.60;;;2.27;;
21438;SDS011;10880;50.302;18.736;2023-07-16T05:20:49;2.20;;;2.00;;
21438;SDS011;10880;50.302;18.736;2023-07-16T05:23:16;1.97;;;1.83;;
21438;SDS011;10880;50.302;18.736;2023-07-16T05:25:46;2.10;;;1.90;;
21438;SDS011;10880;50.302;18.736;2023-07-16T05:28:16;1.77;;;1.67;;
21438;SDS011;10880;50.302;18.736;2023-07-16T05:30:43;2.10;;;1.97;;
21438;SDS011;10880;50.302;18.736;2023-07-16T05:33:10;2.20;;;2.00;;
21438;SDS011;10880;50.302;18.736;2023-07-16T05:35:40;2.37;;;2.17;;
21438;SDS011;10880;50.302;18.736;2023-07-16T05:38:08;2.20;;;2.00;;
21438;SDS011;10880;50.302;18.736;2023-07-16T05:40:34;2.20;;;2.00;;
21438;SDS011;10880;50.302;18.736;2023-07-16T05:43:01;2.20;;;2.00;;
21438;SDS011;10880;50.302;18.736;2023-07-16T05:45:27;2.60;;;2.10;;
21438;SDS011;10880;50.302;18.736;2023-07-16T05:47:55;2.50;;;2.30;;
21438;SDS011;10880;50.302;18.736;2023-07-16T05:50:22;3.10;;;2.63;;
21438;SDS011;10880;50.302;18.736;2023-07-16T05:52:49;2.30;;;2.10;;
21438;SDS011;10880;50.302;18.736;2023-07-16T05:55:17;2.07;;;1.87;;
21438;SDS011;10880;50.302;18.736;2023-07-16T05:57:44;2.27;;;2.07;;
21438;SDS011;10880;50.302;18.736;2023-07-16T06:00:11;2.43;;;2.20;;
21438;SDS011;10880;50.302;18.736;2023-07-16T06:02:42;2.20;;;2.00;;
21438;SDS011;10880;50.302;18.736;2023-07-16T06:05:10;2.07;;;1.83;;
21438;SDS011;10880;50.302;18.736;2023-07-16T06:07:38;2.23;;;2.03;;
21438;SDS011;10880;50.302;18.736;2023-07-16T06:10:06;2.00;;;1.80;;
21438;SDS011;10880;50.302;18.736;2023-07-16T06:12:33;2.77;;;2.07;;
21438;SDS011;10880;50.302;18.736;2023-07-16T06:15:00;2.35;;;2.08;;
21438;SDS011;10880;50.302;18.736;2023-07-16T06:17:27;2.90;;;2.03;;
21438;SDS011;10880;50.302;18.736;2023-07-16T06:19:54;2.80;;;1.98;;
21438;SDS011;10880;50.302;18.736;2023-07-16T06:22:22;2.67;;;2.25;;
21438;SDS011;10880;50.302;18.736;2023-07-16T06:24:49;2.45;;;2.20;;
21438;SDS011;10880;50.302;18.736;2023-07-16T06:27:16;2.70;;;2.50;;
21438;SDS011;10880;50.302;18.736;2023-07-16T06:29:42;2.72;;;2.17;;
21438;SDS011;10880;50.302;18.736;2023-07-16T06:32:09;2.20;;;2.00;;
21438;SDS011;10880;50.302;18.736;2023-07-16T06:34:35;2.38;;;2.17;;
21438;SDS011;10880;50.302;18.736;2023-07-16T06:37:01;2.85;;;2.40;;
21438;SDS011;10880;50.302;18.736;2023-07-16T06:39:28;5.07;;;2.53;;
21438;SDS011;10880;50.302;18.736;2023-07-16T06:41:56;3.55;;;3.00;;
21438;SDS011;10880;50.302;18.736;2023-07-16T06:44:23;2.75;;;2.53;;
21438;SDS011;10880;50.302;18.736;2023-07-16T06:46:50;3.33;;;2.97;;
21438;SDS011;10880;50.302;18.736;2023-07-16T06:49:17;2.72;;;2.53;;
21438;SDS011;10880;50.302;18.736;2023-07-16T06:51:43;3.15;;;2.85;;
21438;SDS011;10880;50.302;18.736;2023-07-16T06:54:12;2.80;;;2.60;;
21438;SDS011;10880;50.302;18.736;2023-07-16T06:56:38;2.47;;;2.28;;
21438;SDS011;10880;50.302;18.736;2023-07-16T06:59:05;3.45;;;3.15;;
21438;SDS011;10880;50.302;18.736;2023-07-16T07:01:31;3.10;;;2.90;;
21438;SDS011;10880;50.302;18.736;2023-07-16T07:03:58;2.95;;;2.65;;
21438;SDS011;10880;50.302;18.736;2023-07-16T07:06:24;2.60;;;2.40;;
21438;SDS011;10880;50.302;18.736;2023-07-16T07:08:50;2.70;;;2.50;;
21438;SDS011;10880;50.302;18.736;2023-07-16T07:11:17;2.45;;;2.25;;
21438;SDS011;10880;50.302;18.736;2023-07-16T07:13:43;2.55;;;2.35;;
21438;SDS011;10880;50.302;18.736;2023-07-16T07:16:11;2.20;;;2.00;;
21438;SDS011;10880;50.302;18.736;2023-07-16T07:18:37;2.00;;;1.90;;
21438;SDS011;10880;50.302;18.736;2023-07-16T07:21:06;2.03;;;1.92;;
21438;SDS011;10880;50.302;18.736;2023-07-16T07:23:32;2.63;;;2.42;;
21438;SDS011;10880;50.302;18.736;2023-07-16T07:25:58;2.30;;;2.10;;
21438;SDS011;10880;50.302;18.736;2023-07-16T07:28:26;2.50;;;2.30;;
21438;SDS011;10880;50.302;18.736;2023-07-16T07:30:53;2.30;;;2.10;;
21438;SDS011;10880;50.302;18.736;2023-07-16T07:33:20;2.40;;;2.20;;
21438;SDS011;10880;50.302;18.736;2023-07-16T07:35:46;3.00;;;2.80;;
21438;SDS011;10880;50.302;18.736;2023-07-16T07:38:12;2.40;;;2.20;;
21438;SDS011;10880;50.302;18.736;2023-07-16T07:40:42;2.15;;;2.05;;
21438;SDS011;10880;50.302;18.736;2023-07-16T07:43:09;2.22;;;2.13;;
21438;SDS011;10880;50.302;18.736;2023-07-16T07:45:38;2.47;;;2.28;;
21438;SDS011;10880;50.302;18.736;2023-07-16T07:48:05;2.30;;;2.10;;
21438;SDS011;10880;50.302;18.736;2023-07-16T07:50:31;2.08;;;1.98;;
21438;SDS011;10880;50.302;18.736;2023-07-16T07:52:58;2.00;;;1.90;;
21438;SDS011;10880;50.302;18.736;2023-07-16T07:55:24;2.00;;;1.90;;
21438;SDS011;10880;50.302;18.736;2023-07-16T07:57:50;2.20;;;2.10;;
21438;SDS011;10880;50.302;18.736;2023-07-16T08:00:17;2.00;;;1.90;;
21438;SDS011;10880;50.302;18.736;2023-07-16T08:02:44;2.08;;;1.98;;
21438;SDS011;10880;50.302;18.736;2023-07-16T08:05:11;2.03;;;1.92;;
21438;SDS011;10880;50.302;18.736;2023-07-16T08:07:38;2.30;;;2.10;;
21438;SDS011;10880;50.302;18.736;2023-07-16T08:10:05;1.92;;;1.83;;
21438;SDS011;10880;50.302;18.736;2023-07-16T08:12:31;2.00;;;1.90;;
21438;SDS011;10880;50.302;18.736;2023-07-16T08:14:58;2.20;;;2.10;;
21438;SDS011;10880;50.302;18.736;2023-07-16T08:17:28;1.85;;;1.75;;
21438;SDS011;10880;50.302;18.736;2023-07-16T08:20:05;2.30;;;2.10;;
21438;SDS011;10880;50.302;18.736;2023-07-16T08:22:32;1.92;;;1.83;;
21438;SDS011;10880;50.302;18.736;2023-07-16T08:25:05;1.83;;;1.73;;
21438;SDS011;10880;50.302;18.736;2023-07-16T08:27:34;1.90;;;1.80;;
21438;SDS011;10880;50.302;18.736;2023-07-16T08:30:01;1.85;;;1.75;;
21438;SDS011;10880;50.302;18.736;2023-07-16T08:32:30;1.80;;;1.70;;
21438;SDS011;10880;50.302;18.736;2023-07-16T08:34:56;1.90;;;1.75;;
21438;SDS011;10880;50.302;18.736;2023-07-16T08:37:23;1.80;;;1.70;;
21438;SDS011;10880;50.302;18.736;2023-07-16T08:39:52;1.70;;;1.60;;
21438;SDS011;10880;50.302;18.736;2023-07-16T08:42:22;2.17;;;1.98;;
21438;SDS011;10880;50.302;18.736;2023-07-16T08:44:50;1.83;;;1.73;;
21438;SDS011;10880;50.302;18.736;2023-07-16T08:47:17;1.80;;;1.70;;
21438;SDS011;10880;50.302;18.736;2023-07-16T08:49:55;1.60;;;1.50;;
21438;SDS011;10880;50.302;18.736;2023-07-16T08:52:22;2.47;;;1.50;;
21438;SDS011;10880;50.302;18.736;2023-07-16T08:54:48;1.50;;;1.40;;
21438;SDS011;10880;50.302;18.736;2023-07-16T08:57:15;1.50;;;1.40;;
21438;SDS011;10880;50.302;18.736;2023-07-16T08:59:42;1.83;;;1.73;;
21438;SDS011;10880;50.302;18.736;2023-07-16T09:02:11;1.60;;;1.50;;
21438;SDS011;10880;50.302;18.736;2023-07-16T09:04:40;1.65;;;1.55;;
21438;SDS011;10880;50.302;18.736;2023-07-16T09:07:06;1.52;;;1.42;;
21438;SDS011;10880;50.302;18.736;2023-07-16T09:09:33;1.38;;;1.27;;
21438;SDS011;10880;50.302;18.736;2023-07-16T09:11:59;1.60;;;1.50;;
21438;SDS011;10880;50.302;18.736;2023-07-16T09:14:26;2.17;;;1.48;;
21438;SDS011;10880;50.302;18.736;2023-07-16T09:16:54;1.40;;;1.30;;
21438;SDS011;10880;50.302;18.736;2023-07-16T09:19:21;1.95;;;1.20;;
21438;SDS011;10880;50.302;18.736;2023-07-16T09:21:48;1.13;;;1.13;;
21438;SDS011;10880;50.302;18.736;2023-07-16T09:24:15;1.40;;;1.30;;
21438;SDS011;10880;50.302;18.736;2023-07-16T09:26:52;1.30;;;1.20;;
21438;SDS011;10880;50.302;18.736;2023-07-16T09:29:19;1.20;;;1.20;;
21438;SDS011;10880;50.302;18.736;2023-07-16T09:31:53;1.33;;;1.23;;
21438;SDS011;10880;50.302;18.736;2023-07-16T09:34:26;1.40;;;1.30;;
21438;SDS011;10880;50.302;18.736;2023-07-16T09:36:56;1.05;;;1.00;;
21438;SDS011;10880;50.302;18.736;2023-07-16T09:39:24;1.33;;;1.23;;
21438;SDS011;10880;50.302;18.736;2023-07-16T09:41:53;1.20;;;1.15;;
21438;SDS011;10880;50.302;18.736;2023-07-16T09:44:22;1.00;;;1.00;;
21438;SDS011;10880;50.302;18.736;2023-07-16T09:46:49;1.00;;;1.00;;
21438;SDS011;10880;50.302;18.736;2023-07-16T09:49:16;0.93;;;0.93;;
21438;SDS011;10880;50.302;18.736;2023-07-16T09:51:44;1.08;;;1.00;;
21438;SDS011;10880;50.302;18.736;2023-07-16T09:54:14;1.10;;;1.10;;
21438;SDS011;10880;50.302;18.736;2023-07-16T09:56:44;1.00;;;1.00;;
21438;SDS011;10880;50.302;18.736;2023-07-16T09:59:14;0.90;;;0.90;;
21438;SDS011;10880;50.302;18.736;2023-07-16T10:01:42;0.98;;;0.98;;
21438;SDS011;10880;50.302;18.736;2023-07-16T10:04:10;1.00;;;0.93;;
21438;SDS011;10880;50.302;18.736;2023-07-16T10:06:47;0.93;;;0.93;;
21438;SDS011;10880;50.302;18.736;2023-07-16T10:09:32;0.98;;;0.98;;
21438;SDS011;10880;50.302;18.736;2023-07-16T10:14:43;1.00;;;1.00;;
21438;SDS011;10880;50.302;18.736;2023-07-16T10:22:17;1.00;;;1.00;;
21438;SDS011;10880;50.302;18.736;2023-07-16T10:24:50;0.90;;;0.90;;
21438;SDS011;10880;50.302;18.736;2023-07-16T10:27:26;0.93;;;0.90;;
21438;SDS011;10880;50.302;18.736;2023-07-16T10:29:59;0.95;;;0.95;;
21438;SDS011;10880;50.302;18.736;2023-07-16T10:32:32;1.02;;;1.00;;
21438;SDS011;10880;50.302;18.736;2023-07-16T10:35:08;0.80;;;0.80;;
21438;SDS011;10880;50.302;18.736;2023-07-16T10:37:35;0.90;;;0.90;;
21438;SDS011;10880;50.302;18.736;2023-07-16T10:40:03;0.80;;;0.80;;
21438;SDS011;10880;50.302;18.736;2023-07-16T10:42:30;0.90;;;0.90;;
21438;SDS011;10880;50.302;18.736;2023-07-16T10:44:59;0.80;;;0.80;;
21438;SDS011;10880;50.302;18.736;2023-07-16T10:47:32;0.80;;;0.80;;
21438;SDS011;10880;50.302;18.736;2023-07-16T10:50:06;0.93;;;0.85;;
21438;SDS011;10880;50.302;18.736;2023-07-16T10:52:34;0.80;;;0.80;;
21438;SDS011;10880;50.302;18.736;2023-07-16T10:55:01;0.95;;;0.80;;
21438;SDS011;10880;50.302;18.736;2023-07-16T10:57:30;0.90;;;0.90;;
21438;SDS011;10880;50.302;18.736;2023-07-16T10:59:58;0.70;;;0.70;;
21438;SDS011;10880;50.302;18.736;2023-07-16T11:02:26;1.13;;;1.00;;
21438;SDS011;10880;50.302;18.736;2023-07-16T11:04:53;0.85;;;0.85;;
21438;SDS011;10880;50.302;18.736;2023-07-16T11:07:21;0.75;;;0.75;;
21438;SDS011;10880;50.302;18.736;2023-07-16T11:09:51;0.70;;;0.70;;
21438;SDS011;10880;50.302;18.736;2023-07-16T11:12:21;0.80;;;0.80;;
21438;SDS011;10880;50.302;18.736;2023-07-16T11:14:49;0.90;;;0.90;;
21438;SDS011;10880;50.302;18.736;2023-07-16T11:17:21;0.90;;;0.90;;
21438;SDS011;10880;50.302;18.736;2023-07-16T11:19:53;1.00;;;1.00;;
21438;SDS011;10880;50.302;18.736;2023-07-16T11:22:24;1.00;;;0.82;;
21438;SDS011;10880;50.302;18.736;2023-07-16T11:24:55;0.95;;;0.95;;
21438;SDS011;10880;50.302;18.736;2023-07-16T11:27:24;1.20;;;1.10;;
21438;SDS011;10880;50.302;18.736;2023-07-16T11:29:59;1.20;;;1.10;;
21438;SDS011;10880;50.302;18.736;2023-07-16T11:35:06;1.25;;;1.15;;
21438;SDS011;10880;50.302;18.736;2023-07-16T11:37:38;1.17;;;1.02;;
21438;SDS011;10880;50.302;18.736;2023-07-16T11:40:08;2.10;;;1.90;;
21438;SDS011;10880;50.302;18.736;2023-07-16T11:42:36;2.03;;;1.90;;
21438;SDS011;10880;50.302;18.736;2023-07-16T11:45:17;1.70;;;1.60;;
21438;SDS011;10880;50.302;18.736;2023-07-16T11:47:47;1.50;;;1.40;;
21438;SDS011;10880;50.302;18.736;2023-07-16T11:50:16;1.40;;;1.30;;
21438;SDS011;10880;50.302;18.736;2023-07-16T11:52:54;1.48;;;1.38;;
21438;SDS011;10880;50.302;18.736;2023-07-16T11:55:29;1.35;;;1.25;;
21438;SDS011;10880;50.302;18.736;2023-07-16T11:57:56;2.00;;;1.80;;
21438;SDS011;10880;50.302;18.736;2023-07-16T12:00:33;1.40;;;1.30;;
21438;SDS011;10880;50.302;18.736;2023-07-16T12:03:04;1.33;;;1.10;;
21438;SDS011;10880;50.302;18.736;2023-07-16T12:05:32;2.03;;;1.90;;
21438;SDS011;10880;50.302;18.736;2023-07-16T12:08:00;2.00;;;1.90;;
21438;SDS011;10880;50.302;18.736;2023-07-16T12:10:29;1.80;;;1.70;;
21438;SDS011;10880;50.302;18.736;2023-07-16T12:12:55;1.42;;;1.33;;
21438;SDS011;10880;50.302;18.736;2023-07-16T12:15:23;1.95;;;1.85;;
21438;SDS011;10880;50.302;18.736;2023-07-16T12:17:50;2.05;;;1.85;;
21438;SDS011;10880;50.302;18.736;2023-07-16T12:20:21;1.85;;;1.75;;
21438;SDS011;10880;50.302;18.736;2023-07-16T12:22:47;1.60;;;1.50;;
21438;SDS011;10880;50.302;18.736;2023-07-16T12:28:13;1.33;;;1.23;;
21438;SDS011;10880;50.302;18.736;2023-07-16T12:30:40;1.42;;;1.33;;
21438;SDS011;10880;50.302;18.736;2023-07-16T12:33:07;1.23;;;1.13;;
21438;SDS011;10880;50.302;18.736;2023-07-16T12:35:33;1.40;;;1.30;;
21438;SDS011;10880;50.302;18.736;2023-07-16T12:38:01;1.20;;;1.10;;
21438;SDS011;10880;50.302;18.736;2023-07-16T12:40:30;2.22;;;1.30;;
21438;SDS011;10880;50.302;18.736;2023-07-16T12:42:57;1.20;;;1.10;;
21438;SDS011;10880;50.302;18.736;2023-07-16T12:45:23;1.67;;;1.58;;
21438;SDS011;10880;50.302;18.736;2023-07-16T12:47:50;2.03;;;1.83;;
21438;SDS011;10880;50.302;18.736;2023-07-16T12:50:16;1.70;;;1.60;;
21438;SDS011;10880;50.302;18.736;2023-07-16T12:52:43;1.48;;;1.38;;
21438;SDS011;10880;50.302;18.736;2023-07-16T12:55:25;1.73;;;1.63;;
21438;SDS011;10880;50.302;18.736;2023-07-16T12:57:52;2.33;;;1.90;;
21438;SDS011;10880;50.302;18.736;2023-07-16T13:00:18;1.70;;;1.60;;
21438;SDS011;10880;50.302;18.736;2023-07-16T13:02:46;1.35;;;1.25;;
21438;SDS011;10880;50.302;18.736;2023-07-16T13:05:13;1.30;;;1.20;;
21438;SDS011;10880;50.302;18.736;2023-07-16T13:07:40;1.45;;;1.35;;
21438;SDS011;10880;50.302;18.736;2023-07-16T13:10:07;1.70;;;1.60;;
21438;SDS011;10880;50.302;18.736;2023-07-16T13:12:34;1.10;;;1.10;;
21438;SDS011;10880;50.302;18.736;2023-07-16T13:15:01;1.55;;;1.20;;
21438;SDS011;10880;50.302;18.736;2023-07-16T13:17:28;1.40;;;1.30;;
21438;SDS011;10880;50.302;18.736;2023-07-16T13:19:55;1.70;;;1.40;;
21438;SDS011;10880;50.302;18.736;2023-07-16T13:22:24;1.40;;;1.30;;
21438;SDS011;10880;50.302;18.736;2023-07-16T13:24:51;1.83;;;1.55;;
21438;SDS011;10880;50.302;18.736;2023-07-16T13:27:21;1.35;;;1.25;;
21438;SDS011;10880;50.302;18.736;2023-07-16T13:29:49;1.48;;;1.38;;
21438;SDS011;10880;50.302;18.736;2023-07-16T13:32:16;1.23;;;1.00;;
21438;SDS011;10880;50.302;18.736;2023-07-16T13:34:43;1.13;;;1.13;;
21438;SDS011;10880;50.302;18.736;2023-07-16T13:37:11;1.58;;;1.48;;
21438;SDS011;10880;50.302;18.736;2023-07-16T13:39:41;1.30;;;1.20;;
21438;SDS011;10880;50.302;18.736;2023-07-16T13:42:08;1.33;;;1.23;;
21438;SDS011;10880;50.302;18.736;2023-07-16T13:44:37;1.10;;;1.00;;
21438;SDS011;10880;50.302;18.736;2023-07-16T13:47:04;1.20;;;1.10;;
21438;SDS011;10880;50.302;18.736;2023-07-16T13:49:32;1.40;;;1.30;;
21438;SDS011;10880;50.302;18.736;2023-07-16T13:52:00;1.40;;;1.30;;
21438;SDS011;10880;50.302;18.736;2023-07-16T13:54:27;1.38;;;1.27;;
21438;SDS011;10880;50.302;18.736;2023-07-16T13:56:53;1.38;;;1.27;;
21438;SDS011;10880;50.302;18.736;2023-07-16T13:59:20;1.35;;;1.10;;
21438;SDS011;10880;50.302;18.736;2023-07-16T14:01:47;1.40;;;1.30;;
21438;SDS011;10880;50.302;18.736;2023-07-16T14:04:19;1.45;;;1.35;;
21438;SDS011;10880;50.302;18.736;2023-07-16T14:06:47;1.30;;;1.20;;
21438;SDS011;10880;50.302;18.736;2023-07-16T14:09:14;1.15;;;1.10;;
21438;SDS011;10880;50.302;18.736;2023-07-16T14:11:41;1.30;;;1.20;;
21438;SDS011;10880;50.302;18.736;2023-07-16T14:14:10;1.10;;;1.10;;
21438;SDS011;10880;50.302;18.736;2023-07-16T14:16:36;1.30;;;1.20;;
21438;SDS011;10880;50.302;18.736;2023-07-16T14:19:04;1.35;;;1.25;;
21438;SDS011;10880;50.302;18.736;2023-07-16T14:21:31;1.42;;;1.23;;
21438;SDS011;10880;50.302;18.736;2023-07-16T14:24:00;1.23;;;1.13;;
21438;SDS011;10880;50.302;18.736;2023-07-16T14:26:30;1.40;;;1.30;;
21438;SDS011;10880;50.302;18.736;2023-07-16T14:28:59;1.30;;;1.20;;
21438;SDS011;10880;50.302;18.736;2023-07-16T14:31:25;1.35;;;1.25;;
21438;SDS011;10880;50.302;18.736;2023-07-16T14:33:53;1.35;;;1.25;;
21438;SDS011;10880;50.302;18.736;2023-07-16T14:36:21;1.20;;;1.10;;
21438;SDS011;10880;50.302;18.736;2023-07-16T14:38:54;1.52;;;1.42;;
21438;SDS011;10880;50.302;18.736;2023-07-16T14:41:21;1.35;;;1.25;;
21438;SDS011;10880;50.302;18.736;2023-07-16T14:43:47;1.38;;;1.27;;
21438;SDS011;10880;50.302;18.736;2023-07-16T14:46:16;1.48;;;1.38;;
21438;SDS011;10880;50.302;18.736;2023-07-16T14:48:43;1.10;;;1.00;;
21438;SDS011;10880;50.302;18.736;2023-07-16T14:51:11;1.60;;;1.50;;
21438;SDS011;10880;50.302;18.736;2023-07-16T14:53:41;1.38;;;1.27;;
21438;SDS011;10880;50.302;18.736;2023-07-16T14:56:13;1.30;;;1.20;;
21438;SDS011;10880;50.302;18.736;2023-07-16T14:58:50;1.00;;;1.00;;
21438;SDS011;10880;50.302;18.736;2023-07-16T15:01:18;1.50;;;1.40;;